createdAt,value
2022-09-09T00:00:17.148Z,59.40
2022-09-09T00:02:51.177Z,60.08
2022-09-09T00:05:27.579Z,59.78
2022-09-09T00:08:00.464Z,59.59
2022-09-09T00:10:32.306Z,59.75
2022-09-09T00:13:17.048Z,59.52
2022-09-09T00:15:57.803Z,60.05
2022-09-09T00:18:33.102Z,59.72
2022-09-09T00:21:08.513Z,60.16
2022-09-09T00:23:41.348Z,59.94
2022-09-09T00:26:16.496Z,59.71
2022-09-09T00:28:52.536Z,59.58
2022-09-09T00:31:25.480Z,59.90
2022-09-09T00:33:56.088Z,59.95
2022-09-09T00:36:27.395Z,59.62
2022-09-09T00:38:59.368Z,59.69
2022-09-09T00:41:42.255Z,59.64
2022-09-09T00:44:22.983Z,60.63
2022-09-09T00:47:02.042Z,60.34
2022-09-09T00:49:41.949Z,60.19
2022-09-09T00:52:23.769Z,60.41
2022-09-09T00:55:04.248Z,59.58
2022-09-09T00:57:34.396Z,60.05
2022-09-09T01:00:24.918Z,59.43
2022-09-09T01:03:09.676Z,60.33
2022-09-09T01:05:45.754Z,60.37
2022-09-09T01:08:31.115Z,59.67
2022-09-09T01:11:01.431Z,59.33
2022-09-09T01:13:31.976Z,59.32
2022-09-09T01:16:04.312Z,59.44
2022-09-09T01:18:37.136Z,59.73
2022-09-09T01:21:16.692Z,59.08
2022-09-09T01:24:03.770Z,59.33
2022-09-09T01:26:36.984Z,59.07
2022-09-09T01:29:09.996Z,59.08
2022-09-09T01:31:42.086Z,59.70
2022-09-09T01:34:13.709Z,59.61
2022-09-09T01:36:48.817Z,59.68
2022-09-09T01:39:17.732Z,59.89
2022-09-09T01:41:48.061Z,59.96
2022-09-09T01:44:19.162Z,60.16
2022-09-09T01:46:47.855Z,60.02
2022-09-09T01:49:16.687Z,60.02
2022-09-09T01:51:45.875Z,60.44
2022-09-09T01:54:14.599Z,60.53
2022-09-09T01:56:59.134Z,60.58
2022-09-09T01:59:43.207Z,61.45
2022-09-09T02:02:15.912Z,61.29
2022-09-09T02:04:49.152Z,60.99
2022-09-09T02:07:30.384Z,61.26
2022-09-09T02:10:03.988Z,61.66
2022-09-09T02:12:33.597Z,61.23
2022-09-09T02:15:07.027Z,60.95
2022-09-09T02:17:40.425Z,61.06
2022-09-09T02:20:14.055Z,60.86
2022-09-09T02:22:46.288Z,60.78
2022-09-09T02:25:19.154Z,60.40
2022-09-09T02:27:52.494Z,60.95
2022-09-09T02:30:22.465Z,60.84
2022-09-09T02:32:57.940Z,60.69
2022-09-09T02:35:29.420Z,60.59
2022-09-09T02:38:01.987Z,60.74
2022-09-09T02:40:30.541Z,60.55
2022-09-09T02:43:01.050Z,60.43
2022-09-09T02:45:38.598Z,61.03
2022-09-09T02:48:16.268Z,61.29
2022-09-09T02:50:54.738Z,61.67
2022-09-09T02:53:31.535Z,61.59
2022-09-09T02:56:06.025Z,61.41
2022-09-09T02:58:37.065Z,61.02
2022-09-09T03:01:05.975Z,60.99
2022-09-09T03:03:35.023Z,61.17
2022-09-09T03:06:03.988Z,61.31
2022-09-09T03:08:32.516Z,61.43
2022-09-09T03:11:02.566Z,61.43
2022-09-09T03:13:31.560Z,61.30
2022-09-09T03:16:01.589Z,61.74
2022-09-09T03:18:30.581Z,61.76
2022-09-09T03:21:00.655Z,61.51
2022-09-09T03:23:30.411Z,61.60
2022-09-09T03:25:59.676Z,61.06
2022-09-09T03:28:32.294Z,61.06
2022-09-09T03:31:04.435Z,61.10
2022-09-09T03:33:35.193Z,61.77
2022-09-09T03:36:06.415Z,62.15
2022-09-09T03:38:34.613Z,62.04
2022-09-09T03:41:03.294Z,61.96
2022-09-09T03:43:32.256Z,61.84
2022-09-09T03:46:00.226Z,62.79
2022-09-09T03:48:30.084Z,62.69
2022-09-09T03:51:01.762Z,62.79
2022-09-09T03:53:30.639Z,63.09
2022-09-09T03:56:00.649Z,62.74
2022-09-09T03:58:29.341Z,63.13
2022-09-09T04:00:59.994Z,62.92
2022-09-09T04:03:30.692Z,62.37
2022-09-09T04:06:00.701Z,61.94
2022-09-09T04:08:29.583Z,61.92
2022-09-09T04:10:58.935Z,61.67
2022-09-09T04:13:28.574Z,61.79
2022-09-09T04:15:59.899Z,61.76
2022-09-09T04:18:29.054Z,61.86
2022-09-09T04:20:59.188Z,61.87
2022-09-09T04:23:29.805Z,61.76
2022-09-09T04:26:00.024Z,61.34
2022-09-09T04:28:30.224Z,61.05
2022-09-09T04:30:59.460Z,60.70
2022-09-09T04:33:28.443Z,60.82
2022-09-09T04:35:58.054Z,60.86
2022-09-09T04:38:27.124Z,61.03
2022-09-09T04:40:55.488Z,61.44
2022-09-09T04:43:26.700Z,61.71
2022-09-09T04:45:55.337Z,61.28
2022-09-09T04:48:23.668Z,61.07
2022-09-09T04:51:00.266Z,60.98
2022-09-09T04:53:29.128Z,61.06
2022-09-09T04:56:03.753Z,60.68
2022-09-09T04:58:33.164Z,61.53
2022-09-09T05:01:08.911Z,60.82
2022-09-09T05:03:38.563Z,61.27
2022-09-09T05:06:11.749Z,61.35
2022-09-09T05:08:42.086Z,61.50
2022-09-09T05:11:16.492Z,61.16
2022-09-09T05:13:45.692Z,61.78
2022-09-09T05:16:13.938Z,61.51
2022-09-09T05:18:43.670Z,61.61
2022-09-09T05:21:14.305Z,61.14
2022-09-09T05:23:42.727Z,60.93
2022-09-09T05:26:17.364Z,60.70
2022-09-09T05:28:47.852Z,60.49
2022-09-09T05:31:17.636Z,60.64
2022-09-09T05:33:49.176Z,60.63
2022-09-09T05:36:21.731Z,60.54
2022-09-09T05:38:51.169Z,60.62
2022-09-09T05:41:23.927Z,60.66
2022-09-09T05:43:52.175Z,60.76
2022-09-09T05:46:23.141Z,60.37
2022-09-09T05:48:53.264Z,60.20
2022-09-09T05:51:25.513Z,60.26
2022-09-09T05:53:53.480Z,60.55
2022-09-09T05:56:26.120Z,60.69
2022-09-09T05:58:55.129Z,60.50
2022-09-09T06:01:26.443Z,60.66
2022-09-09T06:03:55.099Z,60.62
2022-09-09T06:06:27.636Z,60.55
2022-09-09T06:08:58.482Z,60.41
2022-09-09T06:11:28.841Z,60.28
2022-09-09T06:13:57.142Z,60.72
2022-09-09T06:16:28.331Z,60.94
2022-09-09T06:18:58.830Z,60.73
2022-09-09T06:21:30.236Z,60.41
2022-09-09T06:24:01.010Z,60.41
2022-09-09T06:26:31.742Z,60.14
2022-09-09T06:29:04.498Z,59.87
2022-09-09T06:31:35.353Z,59.99
2022-09-09T06:34:07.537Z,59.97
2022-09-09T06:36:38.746Z,60.17
2022-09-09T06:39:13.682Z,60.09
2022-09-09T06:41:43.470Z,59.83
2022-09-09T06:44:16.422Z,59.89
2022-09-09T06:46:44.406Z,59.63
2022-09-09T06:49:12.953Z,59.53
2022-09-09T06:51:43.811Z,59.52
2022-09-09T06:54:13.518Z,59.48
2022-09-09T06:56:44.501Z,59.28
2022-09-09T06:59:13.392Z,59.12
2022-09-09T07:01:44.636Z,59.09
2022-09-09T07:04:14.555Z,59.05
2022-09-09T07:06:45.838Z,58.95
2022-09-09T07:09:15.942Z,59.19
2022-09-09T07:11:45.697Z,58.91
2022-09-09T07:14:14.984Z,58.72
2022-09-09T07:16:44.103Z,58.60
2022-09-09T07:19:12.589Z,58.54
2022-09-09T07:21:41.595Z,58.18
2022-09-09T07:24:13.759Z,58.08
2022-09-09T07:26:42.633Z,57.80
2022-09-09T07:29:10.974Z,57.80
2022-09-09T07:31:41.078Z,57.71
2022-09-09T07:34:09.681Z,57.33
2022-09-09T07:36:40.113Z,57.42
2022-09-09T07:39:12.015Z,57.44
2022-09-09T07:41:42.242Z,57.37
2022-09-09T07:44:12.736Z,56.82
2022-09-09T07:46:42.455Z,56.98
2022-09-09T07:49:11.924Z,56.54
2022-09-09T07:51:42.811Z,56.42
2022-09-09T07:54:14.268Z,55.40
2022-09-09T07:56:43.431Z,55.11
2022-09-09T07:59:13.066Z,55.23
2022-09-09T08:01:44.141Z,55.27
2022-09-09T08:04:17.515Z,54.91
2022-09-09T08:06:48.341Z,54.89
2022-09-09T08:09:19.193Z,54.93
2022-09-09T08:11:47.992Z,52.62
2022-09-09T08:14:16.792Z,54.24
2022-09-09T08:16:46.597Z,52.86
2022-09-09T08:19:16.308Z,53.34
2022-09-09T08:21:46.536Z,53.71
2022-09-09T08:24:16.043Z,53.64
2022-09-09T08:26:49.917Z,53.76
2022-09-09T08:29:19.432Z,52.29
2022-09-09T08:31:50.104Z,53.32
2022-09-09T08:34:21.514Z,53.12
2022-09-09T08:36:51.773Z,52.81
2022-09-09T08:39:23.745Z,52.73
2022-09-09T08:42:15.803Z,52.09
2022-09-09T08:44:58.580Z,49.33
2022-09-09T08:47:37.056Z,50.13
2022-09-09T08:50:18.336Z,50.04
2022-09-09T08:52:54.635Z,50.77
2022-09-09T08:55:30.856Z,50.78
2022-09-09T08:58:08.483Z,50.31
2022-09-09T09:00:46.368Z,50.56
2022-09-09T09:03:24.781Z,48.27
2022-09-09T09:06:03.284Z,49.06
2022-09-09T09:08:39.966Z,49.24
2022-09-09T09:11:07.900Z,50.02
2022-09-09T09:13:45.456Z,49.78
2022-09-09T09:16:24.084Z,48.21
2022-09-09T09:18:53.438Z,48.35
2022-09-09T09:21:27.193Z,50.18
2022-09-09T09:23:59.149Z,48.33
2022-09-09T09:26:32.784Z,49.12
2022-09-09T09:29:12.913Z,49.37
2022-09-09T09:31:45.500Z,48.89
2022-09-09T09:34:13.950Z,48.86
2022-09-09T09:36:45.692Z,48.95
2022-09-09T09:42:17.845Z,45.53
2022-09-09T09:44:51.385Z,47.51
2022-09-09T09:47:21.431Z,48.14
2022-09-09T09:49:55.062Z,47.83
2022-09-09T09:52:26.023Z,45.18
2022-09-09T09:54:55.463Z,48.03
2022-09-09T09:57:30.074Z,47.87
2022-09-09T10:00:17.652Z,46.65
2022-09-09T10:02:48.644Z,43.61
2022-09-09T10:05:25.744Z,46.64
2022-09-09T10:08:07.118Z,46.69
2022-09-09T10:11:06.877Z,43.37
2022-09-09T10:13:44.330Z,43.10
2022-09-09T10:16:27.835Z,44.42
2022-09-09T10:19:01.915Z,44.35
2022-09-09T10:21:47.422Z,46.24
2022-09-09T10:24:36.321Z,44.62
2022-09-09T10:27:13.689Z,42.91
2022-09-09T10:30:02.542Z,45.96
2022-09-09T10:32:45.352Z,43.95
2022-09-09T10:35:31.257Z,43.58
2022-09-09T10:38:18.057Z,44.65
2022-09-09T10:41:09.910Z,44.66
2022-09-09T10:44:00.579Z,46.10
2022-09-09T10:46:39.658Z,45.59
2022-09-09T10:49:24.216Z,44.43
2022-09-09T10:52:00.732Z,44.80
2022-09-09T10:54:47.616Z,45.29
2022-09-09T10:57:22.926Z,44.60
2022-09-09T10:59:54.661Z,45.59
2022-09-09T11:02:29.253Z,45.37
2022-09-09T11:05:03.723Z,45.45
2022-09-09T11:07:39.782Z,45.24
2022-09-09T11:10:18.836Z,45.92
2022-09-09T11:12:50.987Z,46.71
2022-09-09T11:15:25.943Z,46.71
2022-09-09T11:17:58.527Z,46.69
2022-09-09T11:20:28.383Z,47.47
2022-09-09T11:23:02.599Z,48.05
2022-09-09T11:25:37.490Z,47.78
2022-09-09T11:28:29.971Z,47.98
2022-09-09T11:31:14.781Z,46.94
2022-09-09T11:34:07.086Z,45.35
2022-09-09T11:36:58.259Z,43.71
2022-09-09T11:39:47.958Z,44.41
2022-09-09T11:42:20.692Z,42.97
2022-09-09T11:44:48.922Z,45.59
2022-09-09T11:47:22.687Z,46.11
2022-09-09T11:49:50.906Z,44.09
2022-09-09T11:52:26.667Z,46.05
2022-09-09T11:54:57.734Z,42.60
2022-09-09T11:57:32.847Z,44.14
2022-09-09T12:00:01.540Z,43.93
2022-09-09T12:02:51.572Z,45.43
2022-09-09T12:05:22.172Z,40.72
2022-09-09T12:07:55.714Z,45.05
2022-09-09T12:10:27.335Z,44.69
2022-09-09T12:12:55.223Z,44.12
2022-09-09T12:15:29.729Z,44.01
2022-09-09T12:18:03.201Z,43.69
2022-09-09T12:20:37.518Z,44.39
2022-09-09T12:23:30.194Z,41.13
2022-09-09T12:26:05.326Z,41.47
2022-09-09T12:28:53.295Z,43.90
2022-09-09T12:31:27.692Z,40.32
2022-09-09T12:33:55.600Z,41.65
2022-09-09T12:36:29.335Z,43.46
2022-09-09T12:39:11.623Z,42.90
2022-09-09T12:41:39.737Z,41.61
2022-09-09T12:44:10.687Z,42.93
2022-09-09T12:46:42.964Z,43.08
2022-09-09T12:49:28.981Z,42.39
2022-09-09T12:51:58.755Z,38.55
2022-09-09T12:54:29.103Z,42.29
2022-09-09T12:56:56.973Z,42.64
2022-09-09T12:59:26.866Z,43.03
2022-09-09T13:01:59.231Z,42.41
2022-09-09T13:04:27.938Z,41.82
2022-09-09T13:06:56.427Z,42.80
2022-09-09T13:09:24.317Z,42.69
2022-09-09T13:11:59.212Z,42.66
2022-09-09T13:14:33.459Z,40.92
2022-09-09T13:17:06.781Z,41.42
2022-09-09T13:19:39.883Z,43.00
2022-09-09T13:22:14.263Z,42.02
2022-09-09T13:24:43.661Z,39.29
2022-09-09T13:27:35.248Z,40.85
2022-09-09T13:30:03.739Z,37.26
2022-09-09T13:32:32.471Z,42.13
2022-09-09T13:35:02.350Z,40.52
2022-09-09T13:37:35.976Z,41.66
2022-09-09T13:40:06.619Z,40.07
2022-09-09T13:42:43.666Z,41.54
2022-09-09T13:45:21.465Z,39.83
2022-09-09T13:47:53.273Z,39.29
2022-09-09T13:50:23.494Z,41.58
2022-09-09T13:52:54.342Z,40.59
2022-09-09T13:55:24.955Z,41.39
2022-09-09T13:57:55.533Z,39.44
2022-09-09T14:00:25.097Z,39.87
2022-09-09T14:02:55.627Z,40.80
2022-09-09T14:05:24.124Z,40.66
2022-09-09T14:07:53.293Z,40.10
2022-09-09T14:10:23.239Z,38.07
2022-09-09T14:12:51.189Z,40.05
2022-09-09T14:15:21.069Z,39.66
2022-09-09T14:17:49.559Z,39.53
2022-09-09T14:20:18.630Z,39.42
2022-09-09T14:22:46.569Z,39.33
2022-09-09T14:25:15.411Z,40.58
2022-09-09T14:27:43.438Z,40.41
2022-09-09T14:30:12.543Z,40.41
2022-09-09T14:32:42.028Z,40.41
2022-09-09T14:35:10.478Z,38.80
2022-09-09T14:37:40.138Z,39.55
2022-09-09T14:40:09.590Z,39.42
2022-09-09T14:42:37.598Z,39.17
2022-09-09T14:45:06.479Z,38.34
2022-09-09T14:47:34.637Z,38.48
2022-09-09T14:50:05.095Z,37.74
2022-09-09T14:52:33.035Z,36.32
2022-09-09T14:55:01.151Z,37.88
2022-09-09T14:57:29.043Z,37.38
2022-09-09T14:59:57.619Z,36.22
2022-09-09T15:02:25.904Z,37.22
2022-09-09T15:04:54.361Z,37.87
2022-09-09T15:07:23.585Z,36.10
2022-09-09T15:09:53.093Z,37.64
2022-09-09T15:12:21.541Z,37.97
2022-09-09T15:14:49.578Z,38.02
2022-09-09T15:17:18.081Z,37.85
2022-09-09T15:19:46.734Z,36.70
2022-09-09T15:22:15.136Z,36.02
2022-09-09T15:24:45.092Z,37.07
2022-09-09T15:27:12.966Z,36.58
2022-09-09T15:29:40.844Z,37.98
2022-09-09T15:32:09.299Z,37.98
2022-09-09T15:34:37.194Z,37.94
2022-09-09T15:37:05.211Z,38.20
2022-09-09T15:39:38.167Z,38.25
2022-09-09T15:42:09.386Z,38.12
2022-09-09T15:44:43.216Z,38.04
2022-09-09T15:47:14.106Z,37.09
2022-09-09T15:49:42.398Z,38.44
2022-09-09T15:52:12.166Z,38.53
2022-09-09T15:54:41.068Z,38.64
2022-09-09T15:57:14.322Z,38.67
2022-09-09T15:59:42.287Z,37.76
2022-09-09T16:02:11.712Z,38.29
2022-09-09T16:04:39.913Z,37.52
2022-09-09T16:07:08.248Z,37.65
2022-09-09T16:09:37.226Z,36.81
2022-09-09T16:12:10.528Z,36.46
2022-09-09T16:14:39.947Z,35.81
2022-09-09T16:17:08.409Z,36.36
2022-09-09T16:19:36.724Z,36.17
2022-09-09T16:22:07.654Z,36.57
2022-09-09T16:24:35.857Z,37.00
2022-09-09T16:27:03.700Z,37.29
2022-09-09T16:29:31.650Z,37.27
2022-09-09T16:32:03.995Z,37.11
2022-09-09T16:34:34.406Z,36.30
2022-09-09T16:37:02.956Z,36.94
2022-09-09T16:39:31.163Z,37.38
2022-09-09T16:41:59.280Z,37.77
2022-09-09T16:44:28.836Z,38.16
2022-09-09T16:47:00.395Z,38.42
2022-09-09T16:49:32.408Z,38.63
2022-09-09T16:52:02.065Z,38.80
2022-09-09T16:54:30.467Z,39.08
2022-09-09T16:56:58.465Z,39.31
2022-09-09T16:59:29.934Z,39.56
2022-09-09T17:01:58.497Z,39.89
2022-09-09T17:04:31.949Z,40.09
2022-09-09T17:07:01.473Z,40.19
2022-09-09T17:09:32.212Z,40.51
2022-09-09T17:12:00.918Z,40.39
2022-09-09T17:14:28.950Z,40.40
2022-09-09T17:17:05.465Z,40.49
2022-09-09T17:19:46.508Z,40.47
2022-09-09T17:22:17.233Z,40.57
2022-09-09T17:24:46.678Z,40.63
2022-09-09T17:27:14.914Z,40.74
2022-09-09T17:29:42.796Z,40.81
2022-09-09T17:32:10.977Z,40.96
2022-09-09T17:34:39.921Z,41.13
2022-09-09T17:37:09.159Z,41.16
2022-09-09T17:39:37.525Z,41.27
2022-09-09T17:42:05.780Z,41.34
2022-09-09T17:44:34.204Z,41.47
2022-09-09T17:47:04.712Z,41.58
2022-09-09T17:49:32.938Z,41.71
2022-09-09T17:52:00.871Z,41.82
2022-09-09T17:54:30.300Z,41.91
2022-09-09T17:56:59.227Z,42.02
2022-09-09T17:59:27.104Z,42.06
2022-09-09T18:01:55.504Z,42.25
2022-09-09T18:04:23.711Z,42.21
2022-09-09T18:06:55.558Z,42.25
2022-09-09T18:09:25.744Z,42.54
2022-09-09T18:11:57.047Z,42.56
2022-09-09T18:14:27.546Z,42.78
2022-09-09T18:16:55.830Z,42.83
2022-09-09T18:19:27.156Z,42.88
2022-09-09T18:21:57.585Z,43.07
2022-09-09T18:24:28.308Z,42.99
2022-09-09T18:26:58.159Z,42.96
2022-09-09T18:29:26.749Z,43.21
2022-09-09T18:31:55.878Z,43.23
2022-09-09T18:34:25.552Z,43.33
2022-09-09T18:36:55.762Z,43.48
2022-09-09T18:39:27.079Z,43.49
2022-09-09T18:41:59.401Z,43.64
2022-09-09T18:44:30.197Z,43.67
2022-09-09T18:46:58.206Z,43.76
2022-09-09T18:49:26.568Z,43.79
2022-09-09T18:51:55.024Z,43.80
2022-09-09T18:54:24.567Z,43.85
2022-09-09T18:56:53.125Z,44.07
2022-09-09T18:59:24.554Z,44.27
2022-09-09T19:01:54.035Z,44.59
2022-09-09T19:04:22.882Z,44.32
2022-09-09T19:06:57.600Z,44.39
2022-09-09T19:09:27.358Z,44.38
2022-09-09T19:11:55.351Z,44.36
2022-09-09T19:14:24.914Z,44.34
2022-09-09T19:16:53.671Z,44.50
2022-09-09T19:19:23.424Z,44.35
2022-09-09T19:21:51.805Z,44.34
2022-09-09T19:24:22.244Z,44.44
2022-09-09T19:26:52.212Z,44.49
2022-09-09T19:29:22.756Z,44.51
2022-09-09T19:32:31.629Z,44.62
2022-09-09T19:34:44.082Z,44.68
2022-09-09T19:37:16.334Z,44.58
2022-09-09T19:39:46.673Z,44.98
2022-09-09T19:42:14.896Z,45.10
2022-09-09T19:44:42.773Z,45.35
2022-09-09T19:47:14.246Z,45.40
2022-09-09T19:49:46.787Z,45.61
2022-09-09T19:52:15.965Z,45.77
2022-09-09T19:54:44.223Z,45.90
2022-09-09T19:57:12.139Z,46.00
2022-09-09T19:59:40.308Z,46.18
2022-09-09T20:02:08.364Z,46.24
2022-09-09T20:04:38.782Z,46.34
2022-09-09T20:07:06.725Z,47.20
2022-09-09T20:09:34.643Z,46.54
2022-09-09T20:12:03.123Z,46.42
2022-09-09T20:14:30.956Z,46.51
2022-09-09T20:16:59.507Z,46.45
2022-09-09T20:19:27.741Z,46.48
2022-09-09T20:21:58.709Z,46.65
2022-09-09T20:24:26.879Z,46.69
2022-09-09T20:26:56.481Z,46.55
2022-09-09T20:29:25.937Z,46.57
2022-09-09T20:31:54.042Z,46.65
2022-09-09T20:34:22.927Z,46.82
2022-09-09T20:36:51.342Z,46.76
2022-09-09T20:39:22.126Z,47.30
2022-09-09T20:41:50.687Z,47.69
2022-09-09T20:44:21.532Z,47.50
2022-09-09T20:46:51.854Z,47.48
2022-09-09T20:49:21.886Z,47.46
2022-09-09T20:51:50.700Z,47.48
2022-09-09T20:54:23.269Z,47.42
2022-09-09T20:56:52.687Z,47.57
2022-09-09T20:59:22.608Z,47.87
2022-09-09T21:01:51.232Z,47.81
2022-09-09T21:04:21.304Z,47.81
2022-09-09T21:06:51.069Z,47.90
2022-09-09T21:09:22.723Z,47.96
2022-09-09T21:11:50.772Z,48.21
2022-09-09T21:14:18.594Z,48.08
2022-09-09T21:16:46.822Z,48.25
2022-09-09T21:19:14.647Z,48.26
2022-09-09T21:21:42.483Z,48.28
2022-09-09T21:24:10.615Z,48.21
2022-09-09T21:26:40.246Z,48.36
2022-09-09T21:29:08.151Z,48.89
2022-09-09T21:31:37.371Z,48.95
2022-09-09T21:34:05.638Z,49.44
2022-09-09T21:36:33.748Z,50.29
2022-09-09T21:39:01.917Z,50.06
2022-09-09T21:41:29.788Z,50.05
2022-09-09T21:43:59.118Z,50.22
2022-09-09T21:46:28.127Z,50.89
2022-09-09T21:48:57.043Z,50.33
2022-09-09T21:51:25.334Z,50.22
2022-09-09T21:53:56.494Z,50.17
2022-09-09T21:56:24.576Z,50.97
2022-09-09T21:58:56.361Z,50.38
2022-09-09T22:01:26.354Z,51.19
2022-09-09T22:03:54.567Z,51.06
2022-09-09T22:06:22.455Z,50.50
2022-09-09T22:08:50.282Z,50.16
2022-09-09T22:11:22.361Z,50.41
2022-09-09T22:13:50.326Z,50.38
2022-09-09T22:16:22.732Z,50.46
2022-09-09T22:18:57.590Z,50.53
2022-09-09T22:21:27.280Z,50.65
2022-09-09T22:23:56.746Z,50.42
2022-09-09T22:26:26.009Z,50.49
2022-09-09T22:28:54.444Z,50.71
2022-09-09T22:31:23.500Z,51.04
2022-09-09T22:33:52.067Z,51.19
2022-09-09T22:36:22.337Z,51.20
2022-09-09T22:38:51.771Z,51.33
2022-09-09T22:41:20.318Z,51.21
2022-09-09T22:43:48.966Z,51.28
2022-09-09T22:46:17.266Z,51.23
2022-09-09T22:48:45.167Z,50.94
2022-09-09T22:51:15.532Z,51.45
2022-09-09T22:53:46.102Z,51.42
2022-09-09T22:56:17.067Z,51.52
2022-09-09T22:58:46.047Z,51.26
2022-09-09T23:01:16.669Z,51.21
2022-09-09T23:03:46.033Z,51.37
2022-09-09T23:06:21.991Z,51.56
2022-09-09T23:08:55.693Z,52.05
2022-09-09T23:11:25.007Z,52.51
2022-09-09T23:13:54.181Z,51.85
2022-09-09T23:16:24.498Z,52.25
2022-09-09T23:18:55.080Z,52.35
2022-09-09T23:21:28.243Z,52.39
2022-09-09T23:23:59.507Z,52.85
2022-09-09T23:26:29.794Z,52.35
2022-09-09T23:28:59.423Z,52.27
2022-09-09T23:31:30.248Z,52.13
2022-09-09T23:34:00.344Z,52.48
2022-09-09T23:36:29.904Z,51.88
2022-09-09T23:39:02.068Z,51.58
2022-09-09T23:41:31.632Z,51.92
2022-09-09T23:43:59.513Z,51.72
2022-09-09T23:46:29.101Z,51.78
2022-09-09T23:48:58.954Z,51.67
2022-09-09T23:51:30.350Z,51.85
2022-09-09T23:54:02.900Z,51.62
2022-09-09T23:56:33.436Z,51.94
2022-09-09T23:59:01.954Z,52.07
